sensor_id;sensor_type;location;lat;lon;timestamp;P1;durP1;ratioP1;P2;durP2;ratioP2
41293;SDS011;27037;52.010;4.446;2023-07-08T00:00:15;7.63;;;4.03;;
41293;SDS011;27037;52.010;4.446;2023-07-08T00:02:43;8.93;;;4.72;;
41293;SDS011;27037;52.010;4.446;2023-07-08T00:05:09;7.35;;;4.75;;
41293;SDS011;27037;52.010;4.446;2023-07-08T00:07:37;9.93;;;3.92;;
41293;SDS011;27037;52.010;4.446;2023-07-08T00:10:10;6.45;;;4.10;;
41293;SDS011;27037;52.010;4.446;2023-07-08T00:12:46;5.63;;;3.83;;
41293;SDS011;27037;52.010;4.446;2023-07-08T00:15:14;5.00;;;3.45;;
41293;SDS011;27037;52.010;4.446;2023-07-08T00:17:41;6.28;;;4.10;;
41293;SDS011;27037;52.010;4.446;2023-07-08T00:20:14;6.47;;;4.45;;
41293;SDS011;27037;52.010;4.446;2023-07-08T00:22:45;6.47;;;4.05;;
41293;SDS011;27037;52.010;4.446;2023-07-08T00:25:15;7.35;;;3.80;;
41293;SDS011;27037;52.010;4.446;2023-07-08T00:27:42;7.88;;;4.10;;
41293;SDS011;27037;52.010;4.446;2023-07-08T00:30:17;8.40;;;3.78;;
41293;SDS011;27037;52.010;4.446;2023-07-08T00:32:43;5.78;;;3.90;;
41293;SDS011;27037;52.010;4.446;2023-07-08T00:35:09;6.15;;;4.20;;
41293;SDS011;27037;52.010;4.446;2023-07-08T00:37:34;8.10;;;4.25;;
41293;SDS011;27037;52.010;4.446;2023-07-08T00:40:00;10.18;;;4.28;;
41293;SDS011;27037;52.010;4.446;2023-07-08T00:42:26;5.75;;;4.18;;
41293;SDS011;27037;52.010;4.446;2023-07-08T00:44:52;11.77;;;4.60;;
41293;SDS011;27037;52.010;4.446;2023-07-08T00:47:18;5.40;;;3.85;;
41293;SDS011;27037;52.010;4.446;2023-07-08T00:49:51;7.90;;;4.50;;
41293;SDS011;27037;52.010;4.446;2023-07-08T00:52:28;8.05;;;4.07;;
41293;SDS011;27037;52.010;4.446;2023-07-08T00:54:55;6.97;;;3.80;;
41293;SDS011;27037;52.010;4.446;2023-07-08T00:57:25;7.25;;;4.13;;
41293;SDS011;27037;52.010;4.446;2023-07-08T01:00:06;7.82;;;4.05;;
41293;SDS011;27037;52.010;4.446;2023-07-08T01:02:35;7.05;;;4.25;;
41293;SDS011;27037;52.010;4.446;2023-07-08T01:05:08;8.88;;;4.28;;
41293;SDS011;27037;52.010;4.446;2023-07-08T01:07:38;7.30;;;4.53;;
41293;SDS011;27037;52.010;4.446;2023-07-08T01:10:08;7.43;;;4.55;;
41293;SDS011;27037;52.010;4.446;2023-07-08T01:12:40;8.90;;;4.35;;
41293;SDS011;27037;52.010;4.446;2023-07-08T01:15:11;8.95;;;4.10;;
41293;SDS011;27037;52.010;4.446;2023-07-08T01:17:37;8.23;;;4.60;;
41293;SDS011;27037;52.010;4.446;2023-07-08T01:20:05;7.13;;;4.07;;
41293;SDS011;27037;52.010;4.446;2023-07-08T01:22:33;6.93;;;4.03;;
41293;SDS011;27037;52.010;4.446;2023-07-08T01:25:00;8.50;;;4.28;;
41293;SDS011;27037;52.010;4.446;2023-07-08T01:27:28;7.90;;;4.93;;
41293;SDS011;27037;52.010;4.446;2023-07-08T01:29:57;5.78;;;4.22;;
41293;SDS011;27037;52.010;4.446;2023-07-08T01:32:23;6.45;;;3.85;;
41293;SDS011;27037;52.010;4.446;2023-07-08T01:34:56;6.78;;;4.47;;
41293;SDS011;27037;52.010;4.446;2023-07-08T01:37:35;7.20;;;3.90;;
41293;SDS011;27037;52.010;4.446;2023-07-08T01:42:41;6.78;;;4.20;;
41293;SDS011;27037;52.010;4.446;2023-07-08T01:45:10;6.00;;;4.60;;
41293;SDS011;27037;52.010;4.446;2023-07-08T01:47:38;5.75;;;4.20;;
41293;SDS011;27037;52.010;4.446;2023-07-08T01:50:06;5.65;;;3.88;;
41293;SDS011;27037;52.010;4.446;2023-07-08T01:52:33;6.50;;;4.20;;
41293;SDS011;27037;52.010;4.446;2023-07-08T01:54:59;8.07;;;4.15;;
41293;SDS011;27037;52.010;4.446;2023-07-08T01:57:24;9.30;;;4.43;;
41293;SDS011;27037;52.010;4.446;2023-07-08T01:59:50;9.48;;;4.43;;
41293;SDS011;27037;52.010;4.446;2023-07-08T02:02:15;11.63;;;4.60;;
41293;SDS011;27037;52.010;4.446;2023-07-08T02:04:41;6.00;;;4.22;;
41293;SDS011;27037;52.010;4.446;2023-07-08T02:07:06;8.40;;;4.65;;
41293;SDS011;27037;52.010;4.446;2023-07-08T02:09:32;8.75;;;4.13;;
41293;SDS011;27037;52.010;4.446;2023-07-08T02:11:58;5.80;;;4.07;;
41293;SDS011;27037;52.010;4.446;2023-07-08T02:14:23;6.15;;;4.18;;
41293;SDS011;27037;52.010;4.446;2023-07-08T02:16:49;6.13;;;4.30;;
41293;SDS011;27037;52.010;4.446;2023-07-08T02:19:14;4.90;;;3.80;;
41293;SDS011;27037;52.010;4.446;2023-07-08T02:21:40;9.23;;;4.88;;
41293;SDS011;27037;52.010;4.446;2023-07-08T02:24:06;10.95;;;4.15;;
41293;SDS011;27037;52.010;4.446;2023-07-08T02:26:32;6.82;;;4.40;;
41293;SDS011;27037;52.010;4.446;2023-07-08T02:28:58;7.57;;;4.40;;
41293;SDS011;27037;52.010;4.446;2023-07-08T02:31:25;7.07;;;4.20;;
41293;SDS011;27037;52.010;4.446;2023-07-08T02:33:51;5.88;;;3.95;;
41293;SDS011;27037;52.010;4.446;2023-07-08T02:36:17;6.63;;;4.38;;
41293;SDS011;27037;52.010;4.446;2023-07-08T02:38:42;7.80;;;4.22;;
41293;SDS011;27037;52.010;4.446;2023-07-08T02:41:08;11.27;;;4.50;;
41293;SDS011;27037;52.010;4.446;2023-07-08T02:43:34;7.60;;;4.57;;
41293;SDS011;27037;52.010;4.446;2023-07-08T02:45:59;8.15;;;4.10;;
41293;SDS011;27037;52.010;4.446;2023-07-08T02:48:25;6.97;;;4.40;;
41293;SDS011;27037;52.010;4.446;2023-07-08T02:50:50;7.43;;;4.30;;
41293;SDS011;27037;52.010;4.446;2023-07-08T02:53:16;6.28;;;3.83;;
41293;SDS011;27037;52.010;4.446;2023-07-08T02:55:41;9.77;;;4.35;;
41293;SDS011;27037;52.010;4.446;2023-07-08T02:58:08;6.63;;;4.75;;
41293;SDS011;27037;52.010;4.446;2023-07-08T03:00:34;7.90;;;4.63;;
41293;SDS011;27037;52.010;4.446;2023-07-08T03:03:02;7.75;;;4.60;;
41293;SDS011;27037;52.010;4.446;2023-07-08T03:05:29;7.00;;;4.28;;
41293;SDS011;27037;52.010;4.446;2023-07-08T03:07:55;9.02;;;4.38;;
41293;SDS011;27037;52.010;4.446;2023-07-08T03:10:21;8.07;;;4.53;;
41293;SDS011;27037;52.010;4.446;2023-07-08T03:12:46;9.63;;;4.45;;
41293;SDS011;27037;52.010;4.446;2023-07-08T03:15:12;7.97;;;4.43;;
41293;SDS011;27037;52.010;4.446;2023-07-08T03:17:38;9.43;;;4.78;;
41293;SDS011;27037;52.010;4.446;2023-07-08T03:20:04;8.13;;;4.57;;
41293;SDS011;27037;52.010;4.446;2023-07-08T03:22:33;8.57;;;4.53;;
41293;SDS011;27037;52.010;4.446;2023-07-08T03:24:58;10.98;;;4.85;;
41293;SDS011;27037;52.010;4.446;2023-07-08T03:27:24;6.78;;;4.32;;
41293;SDS011;27037;52.010;4.446;2023-07-08T03:29:49;7.00;;;4.65;;
41293;SDS011;27037;52.010;4.446;2023-07-08T03:32:15;10.75;;;5.05;;
41293;SDS011;27037;52.010;4.446;2023-07-08T03:34:41;9.50;;;4.65;;
41293;SDS011;27037;52.010;4.446;2023-07-08T03:37:08;8.30;;;5.03;;
41293;SDS011;27037;52.010;4.446;2023-07-08T03:39:34;6.70;;;4.57;;
41293;SDS011;27037;52.010;4.446;2023-07-08T03:42:01;9.48;;;5.05;;
41293;SDS011;27037;52.010;4.446;2023-07-08T03:44:26;9.57;;;4.65;;
41293;SDS011;27037;52.010;4.446;2023-07-08T03:46:52;7.85;;;4.53;;
41293;SDS011;27037;52.010;4.446;2023-07-08T03:49:18;8.23;;;4.28;;
41293;SDS011;27037;52.010;4.446;2023-07-08T03:51:47;6.72;;;4.80;;
41293;SDS011;27037;52.010;4.446;2023-07-08T03:54:14;7.82;;;4.80;;
41293;SDS011;27037;52.010;4.446;2023-07-08T03:56:40;7.32;;;4.78;;
41293;SDS011;27037;52.010;4.446;2023-07-08T03:59:06;8.20;;;4.70;;
41293;SDS011;27037;52.010;4.446;2023-07-08T04:01:32;7.38;;;4.82;;
41293;SDS011;27037;52.010;4.446;2023-07-08T04:03:58;8.52;;;4.47;;
41293;SDS011;27037;52.010;4.446;2023-07-08T04:06:24;8.27;;;5.00;;
41293;SDS011;27037;52.010;4.446;2023-07-08T04:08:51;8.75;;;4.85;;
41293;SDS011;27037;52.010;4.446;2023-07-08T04:11:20;7.85;;;4.50;;
41293;SDS011;27037;52.010;4.446;2023-07-08T04:13:48;7.80;;;5.22;;
41293;SDS011;27037;52.010;4.446;2023-07-08T04:16:25;9.52;;;4.88;;
41293;SDS011;27037;52.010;4.446;2023-07-08T04:18:55;9.48;;;5.00;;
41293;SDS011;27037;52.010;4.446;2023-07-08T04:21:22;9.27;;;4.57;;
41293;SDS011;27037;52.010;4.446;2023-07-08T04:23:50;7.32;;;4.90;;
41293;SDS011;27037;52.010;4.446;2023-07-08T04:26:16;7.13;;;5.03;;
41293;SDS011;27037;52.010;4.446;2023-07-08T04:28:42;6.93;;;4.80;;
41293;SDS011;27037;52.010;4.446;2023-07-08T04:31:07;9.27;;;4.72;;
41293;SDS011;27037;52.010;4.446;2023-07-08T04:33:33;10.52;;;5.18;;
41293;SDS011;27037;52.010;4.446;2023-07-08T04:35:59;7.82;;;4.88;;
41293;SDS011;27037;52.010;4.446;2023-07-08T04:38:25;7.78;;;5.10;;
41293;SDS011;27037;52.010;4.446;2023-07-08T04:40:51;8.60;;;5.22;;
41293;SDS011;27037;52.010;4.446;2023-07-08T04:43:18;8.80;;;5.30;;
41293;SDS011;27037;52.010;4.446;2023-07-08T04:45:45;9.10;;;4.72;;
41293;SDS011;27037;52.010;4.446;2023-07-08T04:48:15;7.13;;;5.15;;
41293;SDS011;27037;52.010;4.446;2023-07-08T04:50:44;6.43;;;4.63;;
41293;SDS011;27037;52.010;4.446;2023-07-08T04:53:11;8.85;;;5.10;;
41293;SDS011;27037;52.010;4.446;2023-07-08T04:55:38;8.23;;;4.82;;
41293;SDS011;27037;52.010;4.446;2023-07-08T04:58:06;11.02;;;5.00;;
41293;SDS011;27037;52.010;4.446;2023-07-08T05:00:31;7.95;;;4.63;;
41293;SDS011;27037;52.010;4.446;2023-07-08T05:02:57;8.27;;;5.47;;
41293;SDS011;27037;52.010;4.446;2023-07-08T05:05:23;9.50;;;5.43;;
41293;SDS011;27037;52.010;4.446;2023-07-08T05:07:49;7.25;;;5.22;;
41293;SDS011;27037;52.010;4.446;2023-07-08T05:10:15;6.45;;;5.22;;
41293;SDS011;27037;52.010;4.446;2023-07-08T05:12:42;9.32;;;4.93;;
41293;SDS011;27037;52.010;4.446;2023-07-08T05:15:08;7.63;;;5.20;;
41293;SDS011;27037;52.010;4.446;2023-07-08T05:17:34;9.95;;;5.28;;
41293;SDS011;27037;52.010;4.446;2023-07-08T05:20:00;8.35;;;5.10;;
41293;SDS011;27037;52.010;4.446;2023-07-08T05:22:26;8.35;;;5.30;;
41293;SDS011;27037;52.010;4.446;2023-07-08T05:24:52;11.25;;;5.38;;
41293;SDS011;27037;52.010;4.446;2023-07-08T05:27:20;9.45;;;5.40;;
41293;SDS011;27037;52.010;4.446;2023-07-08T05:29:49;8.70;;;5.70;;
41293;SDS011;27037;52.010;4.446;2023-07-08T05:32:16;8.65;;;5.13;;
41293;SDS011;27037;52.010;4.446;2023-07-08T05:34:42;12.70;;;5.55;;
41293;SDS011;27037;52.010;4.446;2023-07-08T05:37:08;8.90;;;5.13;;
41293;SDS011;27037;52.010;4.446;2023-07-08T05:39:34;6.88;;;5.18;;
41293;SDS011;27037;52.010;4.446;2023-07-08T05:41:59;8.57;;;5.32;;
41293;SDS011;27037;52.010;4.446;2023-07-08T05:44:25;6.97;;;5.13;;
41293;SDS011;27037;52.010;4.446;2023-07-08T05:46:51;8.98;;;5.57;;
41293;SDS011;27037;52.010;4.446;2023-07-08T05:49:16;9.05;;;5.22;;
41293;SDS011;27037;52.010;4.446;2023-07-08T05:51:45;7.47;;;4.78;;
41293;SDS011;27037;52.010;4.446;2023-07-08T05:54:12;10.07;;;5.43;;
41293;SDS011;27037;52.010;4.446;2023-07-08T05:56:39;8.77;;;5.82;;
41293;SDS011;27037;52.010;4.446;2023-07-08T05:59:05;9.18;;;5.55;;
41293;SDS011;27037;52.010;4.446;2023-07-08T06:01:30;7.10;;;5.00;;
41293;SDS011;27037;52.010;4.446;2023-07-08T06:03:56;8.13;;;5.70;;
41293;SDS011;27037;52.010;4.446;2023-07-08T06:06:26;8.50;;;5.60;;
41293;SDS011;27037;52.010;4.446;2023-07-08T06:08:52;9.23;;;4.95;;
41293;SDS011;27037;52.010;4.446;2023-07-08T06:11:19;12.52;;;5.13;;
41293;SDS011;27037;52.010;4.446;2023-07-08T06:13:45;9.02;;;5.38;;
41293;SDS011;27037;52.010;4.446;2023-07-08T06:16:11;9.45;;;5.00;;
41293;SDS011;27037;52.010;4.446;2023-07-08T06:18:36;7.75;;;4.72;;
41293;SDS011;27037;52.010;4.446;2023-07-08T06:21:02;8.35;;;5.30;;
41293;SDS011;27037;52.010;4.446;2023-07-08T06:23:28;9.23;;;5.22;;
41293;SDS011;27037;52.010;4.446;2023-07-08T06:25:54;6.40;;;5.03;;
41293;SDS011;27037;52.010;4.446;2023-07-08T06:28:20;10.32;;;5.47;;
41293;SDS011;27037;52.010;4.446;2023-07-08T06:30:46;9.30;;;5.05;;
41293;SDS011;27037;52.010;4.446;2023-07-08T06:33:12;9.48;;;5.05;;
41293;SDS011;27037;52.010;4.446;2023-07-08T06:35:39;6.82;;;5.10;;
41293;SDS011;27037;52.010;4.446;2023-07-08T06:38:05;9.88;;;5.20;;
41293;SDS011;27037;52.010;4.446;2023-07-08T06:40:32;9.05;;;4.70;;
41293;SDS011;27037;52.010;4.446;2023-07-08T06:42:58;9.15;;;4.43;;
41293;SDS011;27037;52.010;4.446;2023-07-08T06:45:24;10.82;;;4.45;;
41293;SDS011;27037;52.010;4.446;2023-07-08T06:47:50;8.93;;;4.65;;
41293;SDS011;27037;52.010;4.446;2023-07-08T06:50:15;8.45;;;4.60;;
41293;SDS011;27037;52.010;4.446;2023-07-08T06:52:41;5.50;;;3.70;;
41293;SDS011;27037;52.010;4.446;2023-07-08T06:55:08;6.72;;;4.22;;
41293;SDS011;27037;52.010;4.446;2023-07-08T06:57:35;7.15;;;4.10;;
41293;SDS011;27037;52.010;4.446;2023-07-08T07:00:03;12.60;;;4.07;;
41293;SDS011;27037;52.010;4.446;2023-07-08T07:02:30;7.90;;;4.20;;
41293;SDS011;27037;52.010;4.446;2023-07-08T07:04:56;7.00;;;3.95;;
41293;SDS011;27037;52.010;4.446;2023-07-08T07:07:22;8.18;;;4.30;;
41293;SDS011;27037;52.010;4.446;2023-07-08T07:09:50;7.43;;;4.28;;
41293;SDS011;27037;52.010;4.446;2023-07-08T07:12:16;8.30;;;4.35;;
41293;SDS011;27037;52.010;4.446;2023-07-08T07:14:42;9.40;;;4.18;;
41293;SDS011;27037;52.010;4.446;2023-07-08T07:17:07;8.77;;;4.30;;
41293;SDS011;27037;52.010;4.446;2023-07-08T07:19:33;7.00;;;4.47;;
41293;SDS011;27037;52.010;4.446;2023-07-08T07:21:59;8.70;;;4.85;;
41293;SDS011;27037;52.010;4.446;2023-07-08T07:24:24;9.40;;;4.68;;
41293;SDS011;27037;52.010;4.446;2023-07-08T07:26:50;8.68;;;4.40;;
41293;SDS011;27037;52.010;4.446;2023-07-08T07:29:16;8.55;;;4.78;;
41293;SDS011;27037;52.010;4.446;2023-07-08T07:31:42;6.60;;;4.38;;
41293;SDS011;27037;52.010;4.446;2023-07-08T07:34:09;6.63;;;4.50;;
41293;SDS011;27037;52.010;4.446;2023-07-08T07:36:36;6.28;;;4.57;;
41293;SDS011;27037;52.010;4.446;2023-07-08T07:39:02;7.68;;;4.30;;
41293;SDS011;27037;52.010;4.446;2023-07-08T07:41:28;6.82;;;4.47;;
41293;SDS011;27037;52.010;4.446;2023-07-08T07:43:53;8.95;;;4.70;;
41293;SDS011;27037;52.010;4.446;2023-07-08T07:46:19;12.13;;;4.68;;
41293;SDS011;27037;52.010;4.446;2023-07-08T07:48:45;7.30;;;4.55;;
41293;SDS011;27037;52.010;4.446;2023-07-08T07:51:10;10.05;;;5.20;;
41293;SDS011;27037;52.010;4.446;2023-07-08T07:53:37;10.27;;;5.07;;
41293;SDS011;27037;52.010;4.446;2023-07-08T07:56:03;9.57;;;4.70;;
41293;SDS011;27037;52.010;4.446;2023-07-08T07:58:29;13.68;;;5.28;;
41293;SDS011;27037;52.010;4.446;2023-07-08T08:00:56;10.93;;;4.78;;
41293;SDS011;27037;52.010;4.446;2023-07-08T08:03:22;11.07;;;5.60;;
41293;SDS011;27037;52.010;4.446;2023-07-08T08:05:47;9.13;;;4.88;;
41293;SDS011;27037;52.010;4.446;2023-07-08T08:08:14;5.85;;;4.50;;
41293;SDS011;27037;52.010;4.446;2023-07-08T08:10:40;8.32;;;5.13;;
41293;SDS011;27037;52.010;4.446;2023-07-08T08:13:07;7.28;;;4.82;;
41293;SDS011;27037;52.010;4.446;2023-07-08T08:15:33;13.35;;;4.90;;
41293;SDS011;27037;52.010;4.446;2023-07-08T08:17:59;10.50;;;5.22;;
41293;SDS011;27037;52.010;4.446;2023-07-08T08:20:25;8.93;;;4.88;;
41293;SDS011;27037;52.010;4.446;2023-07-08T08:22:51;8.90;;;4.82;;
41293;SDS011;27037;52.010;4.446;2023-07-08T08:25:17;9.05;;;4.80;;
41293;SDS011;27037;52.010;4.446;2023-07-08T08:27:44;10.20;;;5.00;;
41293;SDS011;27037;52.010;4.446;2023-07-08T08:30:10;8.57;;;4.97;;
41293;SDS011;27037;52.010;4.446;2023-07-08T08:32:37;8.35;;;4.63;;
41293;SDS011;27037;52.010;4.446;2023-07-08T08:35:03;10.48;;;4.97;;
41293;SDS011;27037;52.010;4.446;2023-07-08T08:37:29;8.43;;;4.78;;
41293;SDS011;27037;52.010;4.446;2023-07-08T08:39:54;12.68;;;5.40;;
41293;SDS011;27037;52.010;4.446;2023-07-08T08:42:33;9.38;;;4.53;;
41293;SDS011;27037;52.010;4.446;2023-07-08T08:45:04;8.77;;;5.00;;
41293;SDS011;27037;52.010;4.446;2023-07-08T08:47:42;12.88;;;5.10;;
41293;SDS011;27037;52.010;4.446;2023-07-08T08:50:20;8.48;;;5.38;;
41293;SDS011;27037;52.010;4.446;2023-07-08T08:53:09;10.45;;;5.13;;
41293;SDS011;27037;52.010;4.446;2023-07-08T08:55:37;8.60;;;5.63;;
41293;SDS011;27037;52.010;4.446;2023-07-08T09:00:57;11.18;;;5.70;;
41293;SDS011;27037;52.010;4.446;2023-07-08T09:08:44;11.20;;;5.40;;
41293;SDS011;27037;52.010;4.446;2023-07-08T09:14:00;12.43;;;5.93;;
41293;SDS011;27037;52.010;4.446;2023-07-08T09:16:31;9.52;;;5.68;;
41293;SDS011;27037;52.010;4.446;2023-07-08T09:19:21;10.35;;;5.80;;
41293;SDS011;27037;52.010;4.446;2023-07-08T09:22:00;9.07;;;5.35;;
41293;SDS011;27037;52.010;4.446;2023-07-08T09:27:19;14.27;;;7.60;;
41293;SDS011;27037;52.010;4.446;2023-07-08T09:29:45;14.15;;;6.72;;
41293;SDS011;27037;52.010;4.446;2023-07-08T09:32:13;18.27;;;6.25;;
41293;SDS011;27037;52.010;4.446;2023-07-08T09:34:54;13.55;;;6.72;;
41293;SDS011;27037;52.010;4.446;2023-07-08T09:37:27;9.35;;;5.88;;
41293;SDS011;27037;52.010;4.446;2023-07-08T09:39:58;9.48;;;5.80;;
41293;SDS011;27037;52.010;4.446;2023-07-08T09:42:28;14.63;;;6.10;;
41293;SDS011;27037;52.010;4.446;2023-07-08T09:44:57;13.07;;;6.13;;
41293;SDS011;27037;52.010;4.446;2023-07-08T09:47:32;10.82;;;6.07;;
41293;SDS011;27037;52.010;4.446;2023-07-08T09:50:00;14.52;;;6.70;;
41293;SDS011;27037;52.010;4.446;2023-07-08T09:52:29;13.90;;;6.85;;
41293;SDS011;27037;52.010;4.446;2023-07-08T09:54:56;12.75;;;6.60;;
41293;SDS011;27037;52.010;4.446;2023-07-08T09:57:24;13.35;;;6.50;;
41293;SDS011;27037;52.010;4.446;2023-07-08T10:00:02;10.80;;;6.40;;
41293;SDS011;27037;52.010;4.446;2023-07-08T10:02:38;11.30;;;6.45;;
41293;SDS011;27037;52.010;4.446;2023-07-08T10:07:56;14.88;;;6.03;;
41293;SDS011;27037;52.010;4.446;2023-07-08T10:10:26;13.65;;;6.22;;
41293;SDS011;27037;52.010;4.446;2023-07-08T10:12:59;12.30;;;6.60;;
41293;SDS011;27037;52.010;4.446;2023-07-08T10:15:35;12.40;;;6.93;;
41293;SDS011;27037;52.010;4.446;2023-07-08T10:18:04;13.77;;;6.60;;
41293;SDS011;27037;52.010;4.446;2023-07-08T10:20:54;11.90;;;6.50;;
41293;SDS011;27037;52.010;4.446;2023-07-08T10:23:33;11.10;;;6.20;;
41293;SDS011;27037;52.010;4.446;2023-07-08T10:26:10;12.73;;;6.57;;
41293;SDS011;27037;52.010;4.446;2023-07-08T10:31:46;12.85;;;6.75;;
41293;SDS011;27037;52.010;4.446;2023-07-08T10:34:57;11.90;;;6.53;;
41293;SDS011;27037;52.010;4.446;2023-07-08T10:37:32;15.63;;;6.90;;
41293;SDS011;27037;52.010;4.446;2023-07-08T10:45:52;12.95;;;6.85;;
41293;SDS011;27037;52.010;4.446;2023-07-08T10:48:49;10.40;;;6.50;;
41293;SDS011;27037;52.010;4.446;2023-07-08T10:56:54;12.18;;;6.80;;
41293;SDS011;27037;52.010;4.446;2023-07-08T10:59:28;11.63;;;6.75;;
41293;SDS011;27037;52.010;4.446;2023-07-08T11:13:14;12.88;;;6.95;;
41293;SDS011;27037;52.010;4.446;2023-07-08T11:15:49;14.38;;;6.90;;
41293;SDS011;27037;52.010;4.446;2023-07-08T11:20:51;13.65;;;7.15;;
41293;SDS011;27037;52.010;4.446;2023-07-08T11:23:29;12.90;;;7.22;;
41293;SDS011;27037;52.010;4.446;2023-07-08T11:26:19;12.95;;;6.63;;
41293;SDS011;27037;52.010;4.446;2023-07-08T11:28:56;10.10;;;6.35;;
41293;SDS011;27037;52.010;4.446;2023-07-08T11:31:24;10.00;;;7.50;;
41293;SDS011;27037;52.010;4.446;2023-07-08T11:33:52;10.63;;;6.85;;
41293;SDS011;27037;52.010;4.446;2023-07-08T11:36:19;10.15;;;6.95;;
41293;SDS011;27037;52.010;4.446;2023-07-08T11:38:53;12.43;;;7.07;;
41293;SDS011;27037;52.010;4.446;2023-07-08T11:41:21;16.67;;;7.45;;
41293;SDS011;27037;52.010;4.446;2023-07-08T11:43:50;13.02;;;7.68;;
41293;SDS011;27037;52.010;4.446;2023-07-08T11:46:19;10.27;;;7.13;;
41293;SDS011;27037;52.010;4.446;2023-07-08T11:48:51;11.75;;;7.22;;
41293;SDS011;27037;52.010;4.446;2023-07-08T11:51:19;10.95;;;7.18;;
41293;SDS011;27037;52.010;4.446;2023-07-08T11:56:56;10.65;;;7.30;;
41293;SDS011;27037;52.010;4.446;2023-07-08T11:59:30;15.48;;;7.40;;
41293;SDS011;27037;52.010;4.446;2023-07-08T12:02:16;11.07;;;6.83;;
41293;SDS011;27037;52.010;4.446;2023-07-08T12:04:55;11.93;;;7.47;;
41293;SDS011;27037;52.010;4.446;2023-07-08T12:07:30;10.60;;;7.35;;
41293;SDS011;27037;52.010;4.446;2023-07-08T12:10:28;13.27;;;6.88;;
41293;SDS011;27037;52.010;4.446;2023-07-08T12:12:51;12.30;;;7.22;;
41293;SDS011;27037;52.010;4.446;2023-07-08T12:15:24;10.82;;;6.78;;
41293;SDS011;27037;52.010;4.446;2023-07-08T12:17:56;13.45;;;7.30;;
41293;SDS011;27037;52.010;4.446;2023-07-08T12:22:56;11.77;;;7.45;;
41293;SDS011;27037;52.010;4.446;2023-07-08T12:25:26;12.20;;;7.43;;
41293;SDS011;27037;52.010;4.446;2023-07-08T12:30:22;14.43;;;7.63;;
41293;SDS011;27037;52.010;4.446;2023-07-08T12:32:50;12.27;;;7.57;;
41293;SDS011;27037;52.010;4.446;2023-07-08T12:37:53;11.10;;;7.10;;
41293;SDS011;27037;52.010;4.446;2023-07-08T12:40:25;12.38;;;7.55;;
41293;SDS011;27037;52.010;4.446;2023-07-08T12:42:52;10.30;;;7.20;;
41293;SDS011;27037;52.010;4.446;2023-07-08T12:45:20;13.52;;;7.05;;
41293;SDS011;27037;52.010;4.446;2023-07-08T12:47:48;13.38;;;6.80;;
41293;SDS011;27037;52.010;4.446;2023-07-08T12:50:13;11.27;;;6.70;;
41293;SDS011;27037;52.010;4.446;2023-07-08T12:52:40;13.35;;;7.10;;
41293;SDS011;27037;52.010;4.446;2023-07-08T12:55:11;11.85;;;6.93;;
41293;SDS011;27037;52.010;4.446;2023-07-08T12:57:43;12.10;;;6.97;;
41293;SDS011;27037;52.010;4.446;2023-07-08T13:00:16;12.38;;;6.95;;
41293;SDS011;27037;52.010;4.446;2023-07-08T13:03:06;9.00;;;6.45;;
41293;SDS011;27037;52.010;4.446;2023-07-08T13:05:32;8.80;;;6.38;;
41293;SDS011;27037;52.010;4.446;2023-07-08T13:07:59;14.13;;;6.35;;
41293;SDS011;27037;52.010;4.446;2023-07-08T13:10:25;9.10;;;6.53;;
41293;SDS011;27037;52.010;4.446;2023-07-08T13:12:54;12.13;;;6.75;;
41293;SDS011;27037;52.010;4.446;2023-07-08T13:15:24;13.85;;;6.65;;
41293;SDS011;27037;52.010;4.446;2023-07-08T13:17:58;10.98;;;6.45;;
41293;SDS011;27037;52.010;4.446;2023-07-08T13:20:24;7.97;;;6.45;;
41293;SDS011;27037;52.010;4.446;2023-07-08T13:22:54;10.05;;;6.55;;
41293;SDS011;27037;52.010;4.446;2023-07-08T13:25:28;9.98;;;6.97;;
41293;SDS011;27037;52.010;4.446;2023-07-08T13:27:59;12.57;;;6.38;;
41293;SDS011;27037;52.010;4.446;2023-07-08T13:30:49;8.93;;;6.25;;
41293;SDS011;27037;52.010;4.446;2023-07-08T13:33:17;9.70;;;6.60;;
41293;SDS011;27037;52.010;4.446;2023-07-08T13:35:43;9.05;;;5.97;;
41293;SDS011;27037;52.010;4.446;2023-07-08T13:38:14;11.80;;;6.75;;
41293;SDS011;27037;52.010;4.446;2023-07-08T13:40:46;10.70;;;6.28;;
41293;SDS011;27037;52.010;4.446;2023-07-08T13:43:14;10.13;;;5.95;;
41293;SDS011;27037;52.010;4.446;2023-07-08T13:45:44;10.73;;;6.10;;
41293;SDS011;27037;52.010;4.446;2023-07-08T13:48:14;9.32;;;6.15;;
41293;SDS011;27037;52.010;4.446;2023-07-08T13:51:01;11.18;;;6.10;;
41293;SDS011;27037;52.010;4.446;2023-07-08T13:53:41;12.60;;;6.03;;
41293;SDS011;27037;52.010;4.446;2023-07-08T13:58:44;10.52;;;6.18;;
41293;SDS011;27037;52.010;4.446;2023-07-08T14:01:23;8.80;;;5.72;;
41293;SDS011;27037;52.010;4.446;2023-07-08T14:03:50;14.40;;;6.00;;
41293;SDS011;27037;52.010;4.446;2023-07-08T14:06:18;10.70;;;6.35;;
41293;SDS011;27037;52.010;4.446;2023-07-08T14:08:45;11.82;;;6.22;;
41293;SDS011;27037;52.010;4.446;2023-07-08T14:11:11;15.75;;;6.90;;
41293;SDS011;27037;52.010;4.446;2023-07-08T14:13:37;10.38;;;6.28;;
41293;SDS011;27037;52.010;4.446;2023-07-08T14:16:02;8.90;;;6.22;;
41293;SDS011;27037;52.010;4.446;2023-07-08T14:18:34;11.10;;;6.47;;
41293;SDS011;27037;52.010;4.446;2023-07-08T14:20:59;16.58;;;6.25;;
41293;SDS011;27037;52.010;4.446;2023-07-08T14:23:25;10.32;;;6.38;;
41293;SDS011;27037;52.010;4.446;2023-07-08T14:25:51;10.73;;;7.13;;
41293;SDS011;27037;52.010;4.446;2023-07-08T14:28:16;11.15;;;6.72;;
41293;SDS011;27037;52.010;4.446;2023-07-08T14:30:44;14.50;;;7.05;;
41293;SDS011;27037;52.010;4.446;2023-07-08T14:33:12;10.55;;;6.40;;
41293;SDS011;27037;52.010;4.446;2023-07-08T14:35:38;11.00;;;6.93;;
41293;SDS011;27037;52.010;4.446;2023-07-08T14:38:11;13.10;;;6.97;;
41293;SDS011;27037;52.010;4.446;2023-07-08T14:40:38;10.70;;;7.03;;
41293;SDS011;27037;52.010;4.446;2023-07-08T14:43:06;13.43;;;6.93;;
41293;SDS011;27037;52.010;4.446;2023-07-08T14:45:39;14.18;;;6.43;;
41293;SDS011;27037;52.010;4.446;2023-07-08T14:48:10;10.32;;;7.18;;
41293;SDS011;27037;52.010;4.446;2023-07-08T14:50:36;10.73;;;7.35;;
41293;SDS011;27037;52.010;4.446;2023-07-08T14:53:02;13.07;;;6.95;;
41293;SDS011;27037;52.010;4.446;2023-07-08T14:55:28;15.68;;;7.43;;
41293;SDS011;27037;52.010;4.446;2023-07-08T14:57:53;12.82;;;7.18;;
41293;SDS011;27037;52.010;4.446;2023-07-08T15:00:21;10.25;;;7.10;;
41293;SDS011;27037;52.010;4.446;2023-07-08T15:02:47;14.80;;;7.85;;
41293;SDS011;27037;52.010;4.446;2023-07-08T15:05:18;13.70;;;7.30;;
41293;SDS011;27037;52.010;4.446;2023-07-08T15:07:49;14.75;;;7.80;;
41293;SDS011;27037;52.010;4.446;2023-07-08T15:10:16;11.90;;;7.30;;
41293;SDS011;27037;52.010;4.446;2023-07-08T15:12:42;14.48;;;7.68;;
41293;SDS011;27037;52.010;4.446;2023-07-08T15:15:20;13.18;;;8.20;;
41293;SDS011;27037;52.010;4.446;2023-07-08T15:17:57;11.38;;;7.82;;
41293;SDS011;27037;52.010;4.446;2023-07-08T15:20:24;18.48;;;7.93;;
41293;SDS011;27037;52.010;4.446;2023-07-08T15:22:50;11.88;;;7.82;;
41293;SDS011;27037;52.010;4.446;2023-07-08T15:25:16;16.08;;;8.73;;
41293;SDS011;27037;52.010;4.446;2023-07-08T15:27:44;12.77;;;8.25;;
41293;SDS011;27037;52.010;4.446;2023-07-08T15:30:17;14.73;;;7.68;;
41293;SDS011;27037;52.010;4.446;2023-07-08T15:32:51;14.55;;;8.15;;
41293;SDS011;27037;52.010;4.446;2023-07-08T15:35:18;13.70;;;8.18;;
41293;SDS011;27037;52.010;4.446;2023-07-08T15:37:50;16.02;;;7.95;;
41293;SDS011;27037;52.010;4.446;2023-07-08T15:40:18;13.63;;;7.93;;
41293;SDS011;27037;52.010;4.446;2023-07-08T15:42:48;12.63;;;8.10;;
41293;SDS011;27037;52.010;4.446;2023-07-08T15:45:18;16.42;;;10.35;;
41293;SDS011;27037;52.010;4.446;2023-07-08T15:47:48;17.35;;;9.30;;
41293;SDS011;27037;52.010;4.446;2023-07-08T15:50:14;13.30;;;9.00;;
41293;SDS011;27037;52.010;4.446;2023-07-08T15:52:42;14.27;;;8.80;;